createdAt,value
2024-02-01T00:02:13.070Z,81.08
2024-02-01T00:04:41.012Z,81.04
2024-02-01T00:07:09.112Z,81.13
2024-02-01T00:09:37.149Z,81.13
2024-02-01T00:12:05.432Z,80.88
2024-02-01T00:14:33.629Z,80.79
2024-02-01T00:17:01.712Z,80.83
2024-02-01T00:19:29.730Z,80.76
2024-02-01T00:21:57.931Z,80.82
2024-02-01T00:24:26.013Z,80.94
2024-02-01T00:26:54.078Z,81.01
2024-02-01T00:29:22.274Z,80.86
2024-02-01T00:31:50.225Z,80.91
2024-02-01T00:34:18.447Z,80.78
2024-02-01T00:36:46.451Z,80.65
2024-02-01T00:39:14.602Z,80.46
2024-02-01T00:41:42.623Z,80.42
2024-02-01T00:44:10.842Z,80.58
2024-02-01T00:46:38.714Z,80.70
2024-02-01T00:49:06.769Z,80.60
2024-02-01T00:51:34.915Z,80.63
2024-02-01T00:54:02.857Z,80.59
2024-02-01T00:56:31.057Z,80.59
2024-02-01T00:58:59.043Z,80.54
2024-02-01T01:01:27.053Z,80.47
2024-02-01T01:03:56.787Z,80.32
2024-02-01T01:06:25.114Z,80.31
2024-02-01T01:08:53.164Z,80.08
2024-02-01T01:11:21.179Z,80.10
2024-02-01T01:13:49.150Z,79.97
2024-02-01T01:16:17.084Z,79.95
2024-02-01T01:18:45.325Z,80.21
2024-02-01T01:21:13.618Z,80.31
2024-02-01T01:23:41.871Z,80.23
2024-02-01T01:26:09.950Z,80.32
2024-02-01T01:28:38.039Z,80.25
2024-02-01T01:31:05.895Z,80.16
2024-02-01T01:33:35.986Z,80.30
2024-02-01T01:36:04.291Z,80.27
2024-02-01T01:38:32.346Z,80.30
2024-02-01T01:41:00.249Z,80.29
2024-02-01T01:43:28.285Z,80.39
2024-02-01T01:46:04.678Z,80.34
2024-02-01T01:48:35.094Z,80.31
2024-02-01T01:51:04.037Z,80.13
2024-02-01T01:53:36.084Z,80.38
2024-02-01T01:56:04.146Z,80.29
2024-02-01T01:58:36.487Z,79.80
2024-02-01T02:01:05.445Z,79.44
2024-02-01T02:03:38.284Z,79.25
2024-02-01T02:06:06.624Z,79.20
2024-02-01T02:08:34.610Z,79.17
2024-02-01T02:11:02.766Z,79.12
2024-02-01T02:13:30.761Z,79.03
2024-02-01T02:15:58.629Z,79.18
2024-02-01T02:18:26.875Z,79.13
2024-02-01T02:20:56.016Z,78.95
2024-02-01T02:23:24.436Z,78.98
2024-02-01T02:25:52.423Z,78.94
2024-02-01T02:28:22.216Z,79.11
2024-02-01T02:30:50.397Z,79.15
2024-02-01T02:33:18.385Z,79.07
2024-02-01T02:35:46.385Z,79.30
2024-02-01T02:38:18.833Z,79.10
2024-02-01T02:40:46.830Z,79.09
2024-02-01T02:43:18.041Z,78.75
2024-02-01T02:45:46.203Z,78.70
2024-02-01T02:48:15.926Z,78.75
2024-02-01T02:50:44.236Z,78.49
2024-02-01T02:53:12.356Z,78.47
2024-02-01T02:55:40.427Z,78.39
2024-02-01T02:58:08.449Z,78.24
2024-02-01T03:00:36.352Z,78.44
2024-02-01T03:03:05.552Z,78.28
2024-02-01T03:05:34.197Z,78.40
2024-02-01T03:08:06.280Z,78.24
2024-02-01T03:10:34.435Z,78.28
2024-02-01T03:13:02.437Z,78.24
2024-02-01T03:15:30.719Z,78.22
2024-02-01T03:17:59.879Z,78.28
2024-02-01T03:20:28.692Z,78.20
2024-02-01T03:22:57.612Z,78.37
2024-02-01T03:25:30.233Z,78.38
2024-02-01T03:28:04.941Z,78.38
2024-02-01T03:30:34.608Z,78.42
2024-02-01T03:33:04.569Z,78.49
2024-02-01T03:35:35.936Z,78.45
2024-02-01T03:38:04.165Z,78.65
2024-02-01T03:40:32.991Z,78.52
2024-02-01T03:43:00.976Z,78.31
2024-02-01T03:45:30.719Z,78.62
2024-02-01T03:47:58.958Z,78.33
2024-02-01T03:50:27.181Z,78.46
2024-02-01T03:52:55.088Z,78.38
2024-02-01T03:55:23.745Z,78.37
2024-02-01T03:57:51.746Z,78.22
2024-02-01T04:00:26.398Z,78.06
2024-02-01T04:02:59.326Z,78.01
2024-02-01T04:05:28.745Z,78.18
2024-02-01T04:07:57.210Z,78.25
2024-02-01T04:10:25.262Z,78.23
2024-02-01T04:12:53.284Z,78.34
2024-02-01T04:15:21.217Z,78.46
2024-02-01T04:17:50.640Z,78.47
2024-02-01T04:20:19.482Z,78.54
2024-02-01T04:22:51.035Z,78.41
2024-02-01T04:25:19.161Z,78.69
2024-02-01T04:27:51.118Z,78.67
2024-02-01T04:30:20.183Z,78.70
2024-02-01T04:32:49.258Z,78.81
2024-02-01T04:35:17.961Z,78.92
2024-02-01T04:37:47.129Z,78.88
2024-02-01T04:40:15.247Z,79.16
2024-02-01T04:42:48.930Z,79.07
2024-02-01T04:45:17.074Z,79.17
2024-02-01T04:47:45.872Z,79.23
2024-02-01T04:50:14.708Z,79.03
2024-02-01T04:52:42.780Z,79.15
2024-02-01T04:55:13.588Z,79.25
2024-02-01T04:57:42.371Z,79.28
2024-02-01T05:00:19.837Z,79.24
2024-02-01T05:02:48.645Z,79.36
2024-02-01T05:05:18.394Z,79.32
2024-02-01T05:07:46.642Z,79.25
2024-02-01T05:10:14.933Z,79.21
2024-02-01T05:12:43.714Z,79.12
2024-02-01T05:15:15.048Z,79.05
2024-02-01T05:17:43.412Z,78.93
2024-02-01T05:20:13.066Z,79.03
2024-02-01T05:22:42.661Z,79.07
2024-02-01T05:25:17.392Z,79.09
2024-02-01T05:27:54.213Z,78.74
2024-02-01T05:30:23.945Z,78.83
2024-02-01T05:32:54.638Z,78.72
2024-02-01T05:35:29.074Z,78.87
2024-02-01T05:37:59.024Z,78.78
2024-02-01T05:40:27.133Z,78.98
2024-02-01T05:42:55.529Z,78.93
2024-02-01T05:45:24.227Z,78.92
2024-02-01T05:47:53.019Z,78.86
2024-02-01T05:50:21.624Z,79.13
2024-02-01T05:52:49.604Z,79.05
2024-02-01T05:55:17.543Z,79.22
2024-02-01T05:57:45.951Z,79.13
2024-02-01T06:00:20.890Z,79.25
2024-02-01T06:02:50.643Z,79.36
2024-02-01T06:05:20.736Z,79.48
2024-02-01T06:07:48.825Z,79.50
2024-02-01T06:10:16.926Z,79.61
2024-02-01T06:12:44.882Z,79.62
2024-02-01T06:15:13.497Z,79.66
2024-02-01T06:17:41.857Z,79.93
2024-02-01T06:20:13.288Z,79.88
2024-02-01T06:22:41.301Z,79.88
2024-02-01T06:25:13.863Z,80.01
2024-02-01T06:27:42.196Z,80.00
2024-02-01T06:30:14.194Z,80.15
2024-02-01T06:32:43.476Z,80.25
2024-02-01T06:35:19.439Z,80.28
2024-02-01T06:37:54.620Z,80.35
2024-02-01T06:40:41.722Z,80.46
2024-02-01T06:43:29.808Z,80.62
2024-02-01T06:46:09.602Z,80.59
2024-02-01T06:48:48.208Z,80.64
2024-02-01T06:51:23.527Z,80.70
2024-02-01T06:54:00.257Z,80.78
2024-02-01T06:56:50.535Z,80.67
2024-02-01T06:59:32.607Z,80.88
2024-02-01T07:02:26.071Z,80.92
2024-02-01T07:04:55.234Z,80.87
2024-02-01T07:07:33.827Z,81.08
2024-02-01T07:10:15.563Z,81.01
2024-02-01T07:12:54.554Z,81.08
2024-02-01T07:15:28.691Z,81.12
2024-02-01T07:18:01.424Z,81.07
2024-02-01T07:20:52.486Z,81.14
2024-02-01T07:23:21.942Z,81.03
2024-02-01T07:26:03.477Z,81.21
2024-02-01T07:28:50.508Z,81.13
2024-02-01T07:31:37.738Z,81.27
2024-02-01T07:34:24.491Z,81.10
2024-02-01T07:37:13.757Z,81.19
2024-02-01T07:40:00.487Z,81.16
2024-02-01T07:42:47.669Z,81.12
2024-02-01T07:45:34.627Z,81.21
2024-02-01T07:48:21.530Z,81.11
2024-02-01T07:51:08.107Z,81.07
2024-02-01T07:53:54.506Z,81.14
2024-02-01T07:56:41.203Z,81.36
2024-02-01T07:59:11.733Z,81.63
2024-02-01T08:01:59.813Z,81.86
2024-02-01T08:04:47.808Z,82.32
2024-02-01T08:07:37.476Z,82.72
2024-02-01T08:10:07.245Z,82.92
2024-02-01T08:12:35.900Z,83.20
2024-02-01T08:15:04.843Z,83.64
2024-02-01T08:17:33.513Z,83.75
2024-02-01T08:20:12.818Z,83.97
2024-02-01T08:22:43.064Z,84.20
2024-02-01T08:25:12.996Z,84.50
2024-02-01T08:27:55.265Z,84.80
2024-02-01T08:30:29.150Z,85.04
2024-02-01T08:33:16.960Z,85.20
2024-02-01T08:35:45.549Z,85.42
2024-02-01T08:38:14.917Z,85.56
2024-02-01T08:40:42.964Z,85.80
2024-02-01T08:43:14.592Z,85.94
2024-02-01T08:45:45.986Z,86.11
2024-02-01T08:48:15.069Z,86.42
2024-02-01T08:50:45.078Z,86.44
2024-02-01T08:53:21.892Z,86.66
2024-02-01T08:55:54.025Z,86.80
2024-02-01T08:58:22.866Z,87.09
2024-02-01T09:00:51.301Z,87.28
2024-02-01T09:03:31.353Z,87.49
2024-02-01T09:09:41.377Z,87.93
2024-02-01T09:12:11.368Z,87.92
2024-02-01T09:14:39.331Z,88.26
2024-02-01T09:17:08.532Z,88.37
2024-02-01T09:19:36.675Z,88.40
2024-02-01T09:22:09.430Z,88.59
2024-02-01T09:24:37.366Z,88.66
2024-02-01T09:27:10.036Z,88.73
2024-02-01T09:29:39.505Z,88.86
2024-02-01T09:32:07.559Z,89.09
2024-02-01T09:34:35.654Z,89.27
2024-02-01T09:37:05.117Z,89.44
2024-02-01T09:39:35.828Z,89.86
2024-02-01T09:42:13.275Z,89.70
2024-02-01T09:44:43.207Z,89.98
2024-02-01T09:47:13.540Z,90.10
2024-02-01T09:49:43.261Z,90.25
2024-02-01T09:52:11.662Z,90.31
2024-02-01T09:54:39.838Z,90.50
2024-02-01T09:57:16.180Z,90.56
2024-02-01T10:02:14.032Z,91.07
2024-02-01T10:04:44.187Z,91.07
2024-02-01T10:07:12.360Z,90.97
2024-02-01T10:09:40.428Z,91.16
2024-02-01T10:12:08.864Z,91.54
2024-02-01T10:14:40.179Z,91.84
2024-02-01T10:17:12.473Z,91.97
2024-02-01T10:19:42.297Z,92.04
2024-02-01T10:22:12.396Z,92.07
2024-02-01T10:24:46.826Z,92.36
2024-02-01T10:27:30.882Z,92.27
2024-02-01T10:30:11.464Z,92.38
2024-02-01T10:32:45.991Z,92.50
2024-02-01T10:35:18.273Z,92.55
2024-02-01T10:37:53.316Z,92.48
2024-02-01T10:40:30.812Z,92.40
2024-02-01T10:43:01.758Z,92.56
2024-02-01T10:45:36.893Z,92.58
2024-02-01T10:48:10.630Z,92.59
2024-02-01T10:50:39.377Z,92.64
2024-02-01T10:53:09.938Z,92.75
2024-02-01T10:55:41.422Z,92.77
2024-02-01T10:58:14.220Z,92.67
2024-02-01T11:00:48.396Z,92.56
2024-02-01T11:03:19.481Z,92.59
2024-02-01T11:05:47.596Z,92.78
2024-02-01T11:08:18.175Z,92.80
2024-02-01T11:10:54.985Z,92.92
2024-02-01T11:13:30.950Z,92.92
2024-02-01T11:15:59.940Z,92.83
2024-02-01T11:18:28.146Z,92.90
2024-02-01T11:20:58.112Z,92.80
2024-02-01T11:23:26.213Z,92.85
2024-02-01T11:25:57.197Z,92.82
2024-02-01T11:28:30.542Z,92.86
2024-02-01T11:31:07.813Z,92.76
2024-02-01T11:33:44.890Z,92.83
2024-02-01T11:36:12.940Z,92.89
2024-02-01T11:38:41.681Z,92.81
2024-02-01T11:41:09.681Z,92.75
2024-02-01T11:43:40.027Z,92.85
2024-02-01T11:46:09.033Z,92.97
2024-02-01T11:48:44.050Z,92.82
2024-02-01T11:51:18.937Z,92.70
2024-02-01T11:53:48.744Z,92.64
2024-02-01T11:56:19.380Z,92.77
2024-02-01T11:58:57.761Z,92.81
2024-02-01T12:01:28.906Z,92.98
2024-02-01T12:04:02.094Z,93.02
2024-02-01T12:06:30.324Z,92.71
2024-02-01T12:09:01.145Z,92.39
2024-02-01T12:11:35.944Z,91.89
2024-02-01T12:14:12.881Z,91.33
2024-02-01T12:16:42.548Z,90.86
2024-02-01T12:19:14.809Z,90.58
2024-02-01T12:21:47.717Z,90.11
2024-02-01T12:24:19.385Z,89.80
2024-02-01T12:26:48.473Z,89.63
2024-02-01T12:29:18.326Z,89.16
2024-02-01T12:31:50.951Z,88.85
2024-02-01T12:34:24.419Z,88.48
2024-02-01T12:36:54.437Z,88.65
2024-02-01T12:39:25.275Z,88.54
2024-02-01T12:41:53.387Z,88.19
2024-02-01T12:44:24.474Z,87.81
2024-02-01T12:46:52.736Z,87.54
2024-02-01T12:49:21.036Z,86.96
2024-02-01T12:51:49.209Z,86.91
2024-02-01T12:54:17.332Z,86.79
2024-02-01T12:56:48.089Z,86.76
2024-02-01T12:59:16.968Z,86.76
2024-02-01T13:01:45.061Z,86.51
2024-02-01T13:04:28.981Z,86.13
2024-02-01T13:06:57.290Z,85.40
2024-02-01T13:09:33.124Z,84.83
2024-02-01T13:12:01.513Z,83.80
2024-02-01T13:14:33.216Z,83.41
2024-02-01T13:17:11.680Z,83.10
2024-02-01T13:19:42.214Z,83.03
2024-02-01T13:22:10.964Z,83.14
2024-02-01T13:24:48.037Z,83.22
2024-02-01T13:27:19.143Z,83.33
2024-02-01T13:29:50.342Z,82.95
2024-02-01T13:32:18.692Z,82.14
2024-02-01T13:34:46.952Z,81.90
2024-02-01T13:37:15.396Z,81.76
2024-02-01T13:39:45.110Z,81.38
2024-02-01T13:42:14.468Z,81.24
2024-02-01T13:44:47.223Z,81.25
2024-02-01T13:47:15.641Z,81.19
2024-02-01T13:49:45.348Z,81.46
2024-02-01T13:52:14.247Z,81.26
2024-02-01T13:54:42.597Z,80.95
2024-02-01T13:57:10.678Z,80.63
2024-02-01T13:59:43.595Z,80.36
2024-02-01T14:02:14.124Z,79.73
2024-02-01T14:04:45.229Z,79.15
2024-02-01T14:07:19.460Z,77.91
2024-02-01T14:09:48.011Z,77.58
2024-02-01T14:12:15.990Z,77.13
2024-02-01T14:14:44.224Z,77.20
2024-02-01T14:17:13.640Z,76.91
2024-02-01T14:19:41.842Z,77.40
2024-02-01T14:22:13.194Z,77.26
2024-02-01T14:24:41.484Z,77.69
2024-02-01T14:27:10.637Z,77.92
2024-02-01T14:29:40.860Z,77.58
2024-02-01T14:32:09.091Z,77.26
2024-02-01T14:34:45.469Z,76.65
2024-02-01T14:37:14.371Z,76.23
2024-02-01T14:39:43.422Z,75.42
2024-02-01T14:42:11.650Z,74.78
2024-02-01T14:44:39.707Z,74.99
2024-02-01T14:47:11.865Z,74.45
2024-02-01T14:49:39.954Z,74.67
2024-02-01T14:52:10.920Z,74.78
2024-02-01T14:55:10.732Z,74.69
2024-02-01T14:57:39.360Z,74.58
2024-02-01T15:00:09.467Z,74.55
2024-02-01T15:02:37.713Z,74.82
2024-02-01T15:05:06.439Z,74.97
2024-02-01T15:07:35.050Z,75.09
2024-02-01T15:10:04.560Z,75.16
2024-02-01T15:12:33.313Z,75.27
2024-02-01T15:15:01.680Z,75.39
2024-02-01T15:17:32.549Z,75.40
2024-02-01T15:20:00.770Z,75.66
2024-02-01T15:22:29.616Z,75.65
2024-02-01T15:24:57.652Z,75.26
2024-02-01T15:27:28.026Z,75.47
2024-02-01T15:29:56.325Z,75.67
2024-02-01T15:32:24.877Z,75.73
2024-02-01T15:34:52.845Z,75.62
2024-02-01T15:37:21.312Z,75.78
2024-02-01T15:39:49.241Z,75.90
2024-02-01T15:42:17.399Z,75.95
2024-02-01T15:44:50.342Z,76.31
2024-02-01T15:47:19.698Z,76.42
2024-02-01T15:49:50.435Z,76.50
2024-02-01T15:52:18.726Z,76.58
2024-02-01T15:54:46.742Z,76.40
2024-02-01T15:57:17.906Z,76.44
2024-02-01T15:59:48.298Z,76.29
2024-02-01T16:02:16.297Z,76.04
2024-02-01T16:04:44.321Z,75.92
2024-02-01T16:07:12.529Z,75.63
2024-02-01T16:09:41.339Z,75.73
2024-02-01T16:12:19.118Z,75.73
2024-02-01T16:14:48.770Z,75.70
2024-02-01T16:17:18.245Z,75.65
2024-02-01T16:19:47.796Z,75.50
2024-02-01T16:22:34.591Z,75.44
2024-02-01T16:25:02.590Z,75.48
2024-02-01T16:27:50.603Z,75.68
2024-02-01T16:30:27.610Z,75.63
2024-02-01T16:32:55.624Z,75.52
2024-02-01T16:35:55.335Z,75.36
2024-02-01T16:38:31.055Z,75.56
2024-02-01T16:40:59.184Z,75.52
2024-02-01T16:43:39.823Z,75.48
2024-02-01T16:46:37.090Z,75.41
2024-02-01T16:49:07.830Z,75.09
2024-02-01T16:51:40.159Z,75.18
2024-02-01T16:54:10.396Z,75.38
2024-02-01T16:56:41.137Z,75.32
2024-02-01T16:59:11.558Z,75.31
2024-02-01T17:01:52.323Z,75.18
2024-02-01T17:04:26.327Z,75.13
2024-02-01T17:06:56.313Z,74.92
2024-02-01T17:09:28.419Z,74.76
2024-02-01T17:11:58.192Z,74.56
2024-02-01T17:14:35.285Z,74.51
2024-02-01T17:17:06.985Z,74.51
2024-02-01T17:19:40.345Z,74.60
2024-02-01T17:29:01.917Z,74.52
2024-02-01T17:31:35.748Z,74.53
2024-02-01T17:34:11.378Z,74.49
2024-02-01T17:36:40.013Z,74.63
2024-02-01T17:39:38.477Z,74.52
2024-02-01T17:42:11.820Z,74.85
2024-02-01T17:44:42.541Z,74.95
2024-02-01T17:47:12.787Z,74.76
2024-02-01T17:49:48.372Z,74.70
2024-02-01T17:52:28.747Z,74.58
2024-02-01T17:54:56.912Z,74.41
2024-02-01T17:57:41.043Z,74.43
2024-02-01T18:00:15.596Z,74.02
2024-02-01T18:02:46.436Z,73.89
2024-02-01T18:05:14.775Z,73.74
2024-02-01T18:07:44.696Z,73.89
2024-02-01T18:10:14.630Z,73.72
2024-02-01T18:12:45.072Z,73.70
2024-02-01T18:15:22.267Z,73.40
2024-02-01T18:17:50.504Z,73.63
2024-02-01T18:20:22.209Z,73.51
2024-02-01T18:22:53.174Z,73.60
2024-02-01T18:25:35.846Z,73.39
2024-02-01T18:28:06.232Z,73.46
2024-02-01T18:30:44.692Z,73.39
2024-02-01T18:33:14.925Z,73.21
2024-02-01T18:35:54.913Z,73.18
2024-02-01T18:39:02.854Z,73.06
2024-02-01T18:41:33.184Z,72.68
2024-02-01T18:44:13.272Z,72.40
2024-02-01T18:46:47.869Z,72.19
2024-02-01T18:49:20.033Z,72.17
2024-02-01T18:51:53.833Z,72.22
2024-02-01T18:54:26.510Z,72.27
2024-02-01T18:56:57.958Z,72.36
2024-02-01T18:59:44.371Z,72.41
2024-02-01T19:02:39.329Z,72.44
2024-02-01T19:05:07.492Z,72.49
2024-02-01T19:07:41.427Z,72.53
2024-02-01T19:10:29.266Z,72.69
2024-02-01T19:12:57.362Z,72.60
2024-02-01T19:15:36.638Z,72.54
2024-02-01T19:18:06.687Z,72.44
2024-02-01T19:20:34.757Z,72.69
2024-02-01T19:23:02.823Z,72.63
2024-02-01T19:25:32.704Z,72.59
2024-02-01T19:28:03.158Z,72.52
2024-02-01T19:30:41.877Z,72.68
2024-02-01T19:33:28.082Z,72.51
2024-02-01T19:35:56.269Z,72.56
2024-02-01T19:38:26.122Z,72.66
2024-02-01T19:40:54.929Z,72.75
2024-02-01T19:43:24.463Z,72.74
2024-02-01T19:45:52.406Z,72.88
2024-02-01T19:48:20.593Z,72.98
2024-02-01T19:50:48.703Z,73.04
2024-02-01T19:53:16.926Z,73.21
2024-02-01T19:55:45.061Z,74.03
2024-02-01T19:58:13.200Z,74.43
2024-02-01T20:00:41.407Z,74.89
2024-02-01T20:03:10.527Z,75.04
2024-02-01T20:05:38.894Z,75.13
2024-02-01T20:08:06.959Z,75.43
2024-02-01T20:10:36.131Z,75.63
2024-02-01T20:13:04.500Z,75.58
2024-02-01T20:15:32.829Z,75.72
2024-02-01T20:18:00.955Z,75.89
2024-02-01T20:20:29.102Z,76.01
2024-02-01T20:22:57.053Z,76.06
2024-02-01T20:25:26.150Z,75.99
2024-02-01T20:27:57.354Z,76.01
2024-02-01T20:30:26.508Z,76.32
2024-02-01T20:32:58.291Z,76.54
2024-02-01T20:35:27.081Z,76.94
2024-02-01T20:38:05.836Z,77.05
2024-02-01T20:40:37.646Z,77.26
2024-02-01T20:43:11.396Z,77.42
2024-02-01T20:45:39.756Z,77.60
2024-02-01T20:48:20.616Z,77.52
2024-02-01T20:50:52.292Z,77.86
2024-02-01T20:53:20.218Z,77.75
2024-02-01T20:55:50.421Z,77.60
2024-02-01T20:58:27.628Z,77.47
2024-02-01T21:00:57.461Z,77.30
2024-02-01T21:03:26.148Z,77.24
2024-02-01T21:05:55.446Z,77.02
2024-02-01T21:08:23.514Z,77.00
2024-02-01T21:10:51.914Z,76.96
2024-02-01T21:13:21.607Z,76.74
2024-02-01T21:15:53.770Z,76.68
2024-02-01T21:18:24.163Z,76.53
2024-02-01T21:20:54.506Z,76.37
2024-02-01T21:23:40.499Z,76.20
2024-02-01T21:26:26.092Z,76.15
2024-02-01T21:28:58.865Z,76.16
2024-02-01T21:31:27.124Z,76.06
2024-02-01T21:33:56.709Z,75.89
2024-02-01T21:36:26.692Z,76.11
2024-02-01T21:38:54.934Z,76.16
2024-02-01T21:41:30.067Z,75.84
2024-02-01T21:43:58.366Z,75.83
2024-02-01T21:46:33.826Z,75.77
2024-02-01T21:49:01.866Z,75.71
2024-02-01T21:51:30.121Z,75.68
2024-02-01T21:53:58.167Z,75.59
2024-02-01T21:56:26.812Z,75.66
2024-02-01T21:58:55.019Z,75.52
2024-02-01T22:01:23.110Z,75.60
2024-02-01T22:03:51.121Z,75.72
2024-02-01T22:06:19.203Z,75.74
2024-02-01T22:08:47.249Z,75.76
2024-02-01T22:11:15.235Z,75.84
2024-02-01T22:13:43.450Z,75.97
2024-02-01T22:16:12.030Z,76.00
2024-02-01T22:18:40.233Z,76.23
2024-02-01T22:21:08.484Z,76.24
2024-02-01T22:23:36.468Z,76.52
2024-02-01T22:26:04.863Z,76.69
2024-02-01T22:28:32.847Z,77.29
2024-02-01T22:31:00.933Z,78.03
2024-02-01T22:33:28.962Z,78.57
2024-02-01T22:35:57.183Z,78.75
2024-02-01T22:38:25.257Z,78.98
2024-02-01T22:40:53.289Z,79.22
2024-02-01T22:43:21.302Z,79.50
2024-02-01T22:45:49.312Z,79.62
2024-02-01T22:48:17.564Z,79.80
2024-02-01T22:50:46.959Z,80.04
2024-02-01T22:53:15.015Z,79.99
2024-02-01T22:55:42.949Z,80.20
2024-02-01T22:58:11.013Z,80.39
2024-02-01T23:00:39.038Z,80.33
2024-02-01T23:03:08.650Z,80.54
2024-02-01T23:05:36.681Z,80.56
2024-02-01T23:08:05.076Z,80.49
2024-02-01T23:10:33.107Z,80.52
2024-02-01T23:13:01.240Z,80.45
2024-02-01T23:15:29.196Z,80.62
2024-02-01T23:17:57.436Z,80.57
2024-02-01T23:20:25.431Z,80.86
2024-02-01T23:22:53.493Z,81.05
2024-02-01T23:25:21.926Z,81.18
2024-02-01T23:27:50.139Z,81.24
2024-02-01T23:30:18.402Z,81.43
2024-02-01T23:32:46.804Z,81.65
2024-02-01T23:35:15.122Z,81.69
2024-02-01T23:37:43.054Z,81.88
2024-02-01T23:40:12.355Z,82.04
2024-02-01T23:42:40.524Z,82.41
2024-02-01T23:45:12.225Z,82.48
2024-02-01T23:47:41.186Z,82.71
2024-02-01T23:50:09.581Z,82.93
2024-02-01T23:52:42.074Z,83.15
2024-02-01T23:55:10.572Z,83.14
2024-02-01T23:57:39.011Z,83.34
